sensor_id;sensor_type;location;lat;lon;timestamp;pressure;altitude;pressure_sealevel;temperature;humidity
70133;BME280;57495;49.922;7.966;2022-07-29T00:00:56;99790.47;;;21.08;54.20
70133;BME280;57495;49.922;7.966;2022-07-29T00:02:58;99796.78;;;21.08;54.43
70133;BME280;57495;49.922;7.966;2022-07-29T00:04:59;99790.53;;;20.94;54.55
70133;BME280;57495;49.922;7.966;2022-07-29T00:07:01;99790.13;;;20.97;52.91
70133;BME280;57495;49.922;7.966;2022-07-29T00:09:04;99804.91;;;20.56;54.17
70133;BME280;57495;49.922;7.966;2022-07-29T00:11:05;99799.88;;;20.53;55.49
70133;BME280;57495;49.922;7.966;2022-07-29T00:13:07;99800.78;;;20.20;56.03
70133;BME280;57495;49.922;7.966;2022-07-29T00:15:09;99801.34;;;20.49;55.54
70133;BME280;57495;49.922;7.966;2022-07-29T00:17:10;99807.00;;;20.41;55.30
70133;BME280;57495;49.922;7.966;2022-07-29T00:19:11;99802.59;;;20.53;54.71
70133;BME280;57495;49.922;7.966;2022-07-29T00:21:13;99799.25;;;20.64;55.05
70133;BME280;57495;49.922;7.966;2022-07-29T00:23:14;99792.38;;;20.62;55.65
70133;BME280;57495;49.922;7.966;2022-07-29T00:25:17;99790.84;;;20.59;55.41
70133;BME280;57495;49.922;7.966;2022-07-29T00:27:18;99786.91;;;20.55;54.95
70133;BME280;57495;49.922;7.966;2022-07-29T00:29:20;99779.38;;;20.57;54.06
70133;BME280;57495;49.922;7.966;2022-07-29T00:31:21;99783.19;;;20.43;54.55
70133;BME280;57495;49.922;7.966;2022-07-29T00:33:23;99776.25;;;20.54;54.07
70133;BME280;57495;49.922;7.966;2022-07-29T00:35:24;99775.22;;;20.55;53.20
70133;BME280;57495;49.922;7.966;2022-07-29T00:37:43;99760.59;;;20.49;53.48
70133;BME280;57495;49.922;7.966;2022-07-29T00:39:45;99755.75;;;20.58;53.20
70133;BME280;57495;49.922;7.966;2022-07-29T00:41:48;99750.16;;;20.53;52.20
70133;BME280;57495;49.922;7.966;2022-07-29T00:43:49;99731.13;;;20.53;51.84
70133;BME280;57495;49.922;7.966;2022-07-29T00:45:51;99723.84;;;20.40;52.14
70133;BME280;57495;49.922;7.966;2022-07-29T00:47:52;99726.53;;;20.46;51.79
70133;BME280;57495;49.922;7.966;2022-07-29T00:49:54;99736.56;;;20.46;51.84
70133;BME280;57495;49.922;7.966;2022-07-29T00:51:56;99750.16;;;20.46;51.53
70133;BME280;57495;49.922;7.966;2022-07-29T00:53:58;99750.78;;;20.48;51.15
70133;BME280;57495;49.922;7.966;2022-07-29T00:55:59;99751.38;;;20.63;51.61
70133;BME280;57495;49.922;7.966;2022-07-29T00:58:02;99745.94;;;20.63;50.96
70133;BME280;57495;49.922;7.966;2022-07-29T01:00:07;99741.75;;;20.54;52.55
70133;BME280;57495;49.922;7.966;2022-07-29T01:02:09;99735.50;;;20.60;50.85
70133;BME280;57495;49.922;7.966;2022-07-29T01:04:11;99727.97;;;20.62;50.34
70133;BME280;57495;49.922;7.966;2022-07-29T01:06:12;99717.50;;;20.59;50.96
70133;BME280;57495;49.922;7.966;2022-07-29T01:08:15;99717.28;;;20.68;51.13
70133;BME280;57495;49.922;7.966;2022-07-29T01:10:18;99704.13;;;20.58;50.87
70133;BME280;57495;49.922;7.966;2022-07-29T01:12:23;99706.63;;;20.59;50.65
70133;BME280;57495;49.922;7.966;2022-07-29T01:14:27;99697.47;;;20.54;50.66
70133;BME280;57495;49.922;7.966;2022-07-29T01:16:31;99686.63;;;20.47;50.23
70133;BME280;57495;49.922;7.966;2022-07-29T01:18:34;99685.75;;;20.53;49.84
70133;BME280;57495;49.922;7.966;2022-07-29T01:20:55;99686.44;;;20.42;50.68
70133;BME280;57495;49.922;7.966;2022-07-29T01:23:33;99692.69;;;20.49;50.59
70133;BME280;57495;49.922;7.966;2022-07-29T01:26:09;99684.09;;;20.52;49.98
70133;BME280;57495;49.922;7.966;2022-07-29T01:28:39;99687.47;;;20.41;51.13
70133;BME280;57495;49.922;7.966;2022-07-29T01:30:47;99690.06;;;20.22;52.25
70133;BME280;57495;49.922;7.966;2022-07-29T01:32:54;99704.50;;;20.16;52.86
70133;BME280;57495;49.922;7.966;2022-07-29T01:35:00;99706.88;;;19.66;56.25
70133;BME280;57495;49.922;7.966;2022-07-29T01:37:08;99709.38;;;19.67;57.20
70133;BME280;57495;49.922;7.966;2022-07-29T01:39:17;99704.34;;;19.98;56.16
70133;BME280;57495;49.922;7.966;2022-07-29T01:41:20;99699.13;;;19.89;56.38
70133;BME280;57495;49.922;7.966;2022-07-29T01:43:27;99701.63;;;20.04;56.14
70133;BME280;57495;49.922;7.966;2022-07-29T01:45:40;99690.75;;;20.04;55.79
70133;BME280;57495;49.922;7.966;2022-07-29T01:47:45;99690.09;;;20.02;55.68
70133;BME280;57495;49.922;7.966;2022-07-29T01:49:49;99678.06;;;19.92;55.56
70133;BME280;57495;49.922;7.966;2022-07-29T01:51:54;99668.03;;;19.85;55.91
70133;BME280;57495;49.922;7.966;2022-07-29T01:54:12;99660.50;;;19.94;57.23
70133;BME280;57495;49.922;7.966;2022-07-29T01:56:16;99668.44;;;19.69;58.91
70133;BME280;57495;49.922;7.966;2022-07-29T01:58:20;99682.03;;;19.49;60.01
70133;BME280;57495;49.922;7.966;2022-07-29T02:00:23;99690.78;;;19.24;60.99
70133;BME280;57495;49.922;7.966;2022-07-29T02:02:28;99693.06;;;19.21;60.11
70133;BME280;57495;49.922;7.966;2022-07-29T02:04:32;99701.84;;;19.23;60.37
70133;BME280;57495;49.922;7.966;2022-07-29T02:06:38;99691.00;;;19.23;60.57
70133;BME280;57495;49.922;7.966;2022-07-29T02:08:40;99684.75;;;19.29;60.14
70133;BME280;57495;49.922;7.966;2022-07-29T02:10:44;99697.47;;;19.35;58.47
70133;BME280;57495;49.922;7.966;2022-07-29T02:12:46;99695.59;;;19.42;59.14
70133;BME280;57495;49.922;7.966;2022-07-29T02:14:51;99692.66;;;19.37;59.68
70133;BME280;57495;49.922;7.966;2022-07-29T02:16:55;99689.75;;;19.45;59.31
70133;BME280;57495;49.922;7.966;2022-07-29T02:19:02;99694.34;;;19.45;59.42
70133;BME280;57495;49.922;7.966;2022-07-29T02:21:04;99692.03;;;19.48;59.86
70133;BME280;57495;49.922;7.966;2022-07-29T02:23:07;99689.75;;;19.52;60.45
70133;BME280;57495;49.922;7.966;2022-07-29T02:25:12;99698.28;;;19.56;59.70
70133;BME280;57495;49.922;7.966;2022-07-29T02:27:15;99689.13;;;19.43;60.56
70133;BME280;57495;49.922;7.966;2022-07-29T02:29:18;99691.00;;;19.49;59.99
70133;BME280;57495;49.922;7.966;2022-07-29T02:31:24;99686.00;;;19.46;60.20
70133;BME280;57495;49.922;7.966;2022-07-29T02:33:27;99682.25;;;19.41;60.40
70133;BME280;57495;49.922;7.966;2022-07-29T02:35:32;99682.22;;;19.21;60.71
70133;BME280;57495;49.922;7.966;2022-07-29T02:37:33;99695.19;;;19.25;60.81
70133;BME280;57495;49.922;7.966;2022-07-29T02:39:37;99690.19;;;19.16;60.98
70133;BME280;57495;49.922;7.966;2022-07-29T02:41:41;99689.09;;;19.10;60.62
70133;BME280;57495;49.922;7.966;2022-07-29T02:43:45;99690.56;;;19.19;60.24
70133;BME280;57495;49.922;7.966;2022-07-29T02:45:51;99687.22;;;19.17;60.00
70133;BME280;57495;49.922;7.966;2022-07-29T02:47:55;99688.88;;;18.98;60.58
70133;BME280;57495;49.922;7.966;2022-07-29T02:50:02;99682.59;;;18.91;60.96
70133;BME280;57495;49.922;7.966;2022-07-29T02:52:10;99687.19;;;18.84;61.58
70133;BME280;57495;49.922;7.966;2022-07-29T02:54:31;99678.16;;;18.77;61.63
70133;BME280;57495;49.922;7.966;2022-07-29T02:56:34;99680.63;;;18.58;62.41
70133;BME280;57495;49.922;7.966;2022-07-29T02:58:39;99687.31;;;18.62;62.61
70133;BME280;57495;49.922;7.966;2022-07-29T03:00:42;99691.06;;;18.61;63.02
70133;BME280;57495;49.922;7.966;2022-07-29T03:02:48;99686.28;;;18.77;61.98
70133;BME280;57495;49.922;7.966;2022-07-29T03:04:52;99687.59;;;18.81;61.76
70133;BME280;57495;49.922;7.966;2022-07-29T03:06:57;99692.53;;;18.70;61.79
70133;BME280;57495;49.922;7.966;2022-07-29T03:09:01;99691.72;;;18.77;61.63
70133;BME280;57495;49.922;7.966;2022-07-29T03:11:03;99692.09;;;18.67;62.28
70133;BME280;57495;49.922;7.966;2022-07-29T03:13:05;99703.78;;;18.67;62.60
70133;BME280;57495;49.922;7.966;2022-07-29T03:15:09;99691.88;;;18.62;62.80
70133;BME280;57495;49.922;7.966;2022-07-29T03:17:11;99690.88;;;18.69;62.61
70133;BME280;57495;49.922;7.966;2022-07-29T03:19:13;99688.94;;;18.50;63.34
70133;BME280;57495;49.922;7.966;2022-07-29T03:21:14;99689.56;;;18.52;63.14
70133;BME280;57495;49.922;7.966;2022-07-29T03:23:18;99698.94;;;18.49;63.18
70133;BME280;57495;49.922;7.966;2022-07-29T03:25:21;99705.38;;;18.42;64.01
70133;BME280;57495;49.922;7.966;2022-07-29T03:27:22;99700.31;;;18.32;64.42
70133;BME280;57495;49.922;7.966;2022-07-29T03:29:25;99696.38;;;18.41;64.13
70133;BME280;57495;49.922;7.966;2022-07-29T03:31:26;99702.84;;;18.40;64.36
70133;BME280;57495;49.922;7.966;2022-07-29T03:33:27;99703.63;;;18.27;64.23
70133;BME280;57495;49.922;7.966;2022-07-29T03:35:30;99703.25;;;18.30;64.74
70133;BME280;57495;49.922;7.966;2022-07-29T03:37:32;99707.00;;;18.36;64.23
70133;BME280;57495;49.922;7.966;2022-07-29T03:39:38;99714.28;;;18.35;64.14
70133;BME280;57495;49.922;7.966;2022-07-29T03:41:44;99710.31;;;18.31;64.48
70133;BME280;57495;49.922;7.966;2022-07-29T03:43:47;99702.38;;;18.23;64.75
70133;BME280;57495;49.922;7.966;2022-07-29T03:45:52;99702.28;;;18.10;65.00
70133;BME280;57495;49.922;7.966;2022-07-29T03:48:01;99710.31;;;17.96;65.38
70133;BME280;57495;49.922;7.966;2022-07-29T03:50:06;99703.88;;;17.98;65.32
70133;BME280;57495;49.922;7.966;2022-07-29T03:52:08;99714.66;;;17.91;65.59
70133;BME280;57495;49.922;7.966;2022-07-29T03:54:10;99709.31;;;17.98;64.82
70133;BME280;57495;49.922;7.966;2022-07-29T03:56:15;99704.66;;;17.91;64.62
70133;BME280;57495;49.922;7.966;2022-07-29T03:58:18;99704.09;;;17.96;64.38
70133;BME280;57495;49.922;7.966;2022-07-29T04:00:21;99705.63;;;17.84;65.30
70133;BME280;57495;49.922;7.966;2022-07-29T04:02:24;99706.88;;;17.81;66.05
70133;BME280;57495;49.922;7.966;2022-07-29T04:04:26;99709.38;;;17.83;65.84
70133;BME280;57495;49.922;7.966;2022-07-29T04:06:28;99714.09;;;17.74;66.11
70133;BME280;57495;49.922;7.966;2022-07-29T04:08:29;99705.47;;;17.85;65.71
70133;BME280;57495;49.922;7.966;2022-07-29T04:10:30;99717.81;;;17.94;65.49
70133;BME280;57495;49.922;7.966;2022-07-29T04:12:32;99717.16;;;17.92;65.94
70133;BME280;57495;49.922;7.966;2022-07-29T04:14:35;99717.38;;;17.91;65.93
70133;BME280;57495;49.922;7.966;2022-07-29T04:16:36;99715.28;;;17.86;65.88
70133;BME280;57495;49.922;7.966;2022-07-29T04:18:38;99714.09;;;17.74;66.68
70133;BME280;57495;49.922;7.966;2022-07-29T04:20:39;99715.38;;;17.78;66.28
70133;BME280;57495;49.922;7.966;2022-07-29T04:22:41;99712.03;;;17.76;66.31
70133;BME280;57495;49.922;7.966;2022-07-29T04:24:43;99715.38;;;17.78;65.92
70133;BME280;57495;49.922;7.966;2022-07-29T04:26:45;99707.06;;;17.80;66.26
70133;BME280;57495;49.922;7.966;2022-07-29T04:28:46;99713.75;;;17.84;66.16
70133;BME280;57495;49.922;7.966;2022-07-29T04:30:49;99718.72;;;17.80;66.21
70133;BME280;57495;49.922;7.966;2022-07-29T04:32:50;99716.88;;;17.81;66.43
70133;BME280;57495;49.922;7.966;2022-07-29T04:34:52;99714.41;;;17.86;66.49
70133;BME280;57495;49.922;7.966;2022-07-29T04:36:53;99719.50;;;17.95;66.31
70133;BME280;57495;49.922;7.966;2022-07-29T04:38:55;99727.63;;;18.02;66.35
70133;BME280;57495;49.922;7.966;2022-07-29T04:40:56;99731.22;;;18.09;66.24
70133;BME280;57495;49.922;7.966;2022-07-29T04:42:58;99724.81;;;18.17;67.12
70133;BME280;57495;49.922;7.966;2022-07-29T04:44:59;99722.16;;;18.24;66.16
70133;BME280;57495;49.922;7.966;2022-07-29T04:47:02;99724.91;;;18.30;66.53
70133;BME280;57495;49.922;7.966;2022-07-29T04:49:03;99724.91;;;18.37;66.89
70133;BME280;57495;49.922;7.966;2022-07-29T04:51:05;99722.06;;;18.45;66.54
70133;BME280;57495;49.922;7.966;2022-07-29T04:53:07;99726.25;;;18.54;66.78
70133;BME280;57495;49.922;7.966;2022-07-29T04:55:09;99717.75;;;18.64;67.53
70133;BME280;57495;49.922;7.966;2022-07-29T04:57:10;99719.22;;;18.73;65.28
70133;BME280;57495;49.922;7.966;2022-07-29T04:59:11;99721.25;;;18.58;66.63
70133;BME280;57495;49.922;7.966;2022-07-29T05:01:13;99722.53;;;18.62;66.54
70133;BME280;57495;49.922;7.966;2022-07-29T05:03:16;99722.38;;;18.77;65.98
70133;BME280;57495;49.922;7.966;2022-07-29T05:05:18;99724.50;;;18.82;65.38
70133;BME280;57495;49.922;7.966;2022-07-29T05:07:19;99723.88;;;18.93;64.39
70133;BME280;57495;49.922;7.966;2022-07-29T05:09:21;99727.03;;;18.90;65.61
70133;BME280;57495;49.922;7.966;2022-07-29T05:11:22;99729.72;;;18.83;66.33
70133;BME280;57495;49.922;7.966;2022-07-29T05:13:23;99727.53;;;18.65;66.39
70133;BME280;57495;49.922;7.966;2022-07-29T05:15:25;99729.22;;;18.66;67.02
70133;BME280;57495;49.922;7.966;2022-07-29T05:17:26;99738.03;;;18.82;66.51
70133;BME280;57495;49.922;7.966;2022-07-29T05:19:29;99734.03;;;18.78;67.02
70133;BME280;57495;49.922;7.966;2022-07-29T05:21:30;99737.56;;;18.78;67.29
70133;BME280;57495;49.922;7.966;2022-07-29T05:23:32;99742.38;;;18.76;68.49
70133;BME280;57495;49.922;7.966;2022-07-29T05:25:33;99738.72;;;19.04;67.72
70133;BME280;57495;49.922;7.966;2022-07-29T05:27:35;99743.97;;;19.12;67.82
70133;BME280;57495;49.922;7.966;2022-07-29T05:29:36;99732.91;;;19.20;66.71
70133;BME280;57495;49.922;7.966;2022-07-29T05:31:38;99732.31;;;19.31;66.03
70133;BME280;57495;49.922;7.966;2022-07-29T05:33:39;99729.16;;;19.41;65.28
70133;BME280;57495;49.922;7.966;2022-07-29T05:35:42;99722.72;;;19.49;64.49
70133;BME280;57495;49.922;7.966;2022-07-29T05:37:43;99726.69;;;19.53;63.29
70133;BME280;57495;49.922;7.966;2022-07-29T05:39:45;99727.72;;;19.65;62.35
70133;BME280;57495;49.922;7.966;2022-07-29T05:41:47;99728.16;;;19.82;61.94
70133;BME280;57495;49.922;7.966;2022-07-29T05:43:49;99724.84;;;19.74;62.32
70133;BME280;57495;49.922;7.966;2022-07-29T05:45:50;99728.97;;;19.63;64.29
70133;BME280;57495;49.922;7.966;2022-07-29T05:47:52;99726.47;;;19.61;64.52
70133;BME280;57495;49.922;7.966;2022-07-29T05:49:53;99727.72;;;19.52;64.67
70133;BME280;57495;49.922;7.966;2022-07-29T05:51:56;99725.00;;;19.85;62.92
70133;BME280;57495;49.922;7.966;2022-07-29T05:53:58;99719.16;;;20.08;62.38
70133;BME280;57495;49.922;7.966;2022-07-29T05:56:02;99727.28;;;20.02;63.33
70133;BME280;57495;49.922;7.966;2022-07-29T05:58:04;99724.78;;;20.07;63.49
70133;BME280;57495;49.922;7.966;2022-07-29T06:00:06;99733.50;;;20.22;63.00
70133;BME280;57495;49.922;7.966;2022-07-29T06:02:08;99737.59;;;20.52;61.02
70133;BME280;57495;49.922;7.966;2022-07-29T06:04:09;99739.66;;;20.63;60.49
70133;BME280;57495;49.922;7.966;2022-07-29T06:06:11;99745.34;;;20.48;59.66
70133;BME280;57495;49.922;7.966;2022-07-29T06:08:14;99753.06;;;20.51;59.46
70133;BME280;57495;49.922;7.966;2022-07-29T06:10:15;99749.50;;;20.57;59.68
70133;BME280;57495;49.922;7.966;2022-07-29T06:12:17;99755.09;;;20.76;59.41
70133;BME280;57495;49.922;7.966;2022-07-29T06:14:19;99758.53;;;20.96;58.41
70133;BME280;57495;49.922;7.966;2022-07-29T06:16:21;99758.22;;;21.18;57.70
70133;BME280;57495;49.922;7.966;2022-07-29T06:18:22;99749.97;;;21.31;56.90
70133;BME280;57495;49.922;7.966;2022-07-29T06:20:24;99753.22;;;21.47;57.49
70133;BME280;57495;49.922;7.966;2022-07-29T06:22:26;99757.50;;;21.61;56.99
70133;BME280;57495;49.922;7.966;2022-07-29T06:24:30;99753.34;;;21.84;55.46
70133;BME280;57495;49.922;7.966;2022-07-29T06:26:31;99747.41;;;21.93;55.56
70133;BME280;57495;49.922;7.966;2022-07-29T06:28:33;99743.25;;;22.09;55.10
70133;BME280;57495;49.922;7.966;2022-07-29T06:30:35;99747.19;;;22.13;54.44
70133;BME280;57495;49.922;7.966;2022-07-29T06:32:36;99738.75;;;22.40;52.74
70133;BME280;57495;49.922;7.966;2022-07-29T06:34:38;99746.00;;;22.46;52.10
70133;BME280;57495;49.922;7.966;2022-07-29T06:36:40;99742.91;;;22.61;51.96
70133;BME280;57495;49.922;7.966;2022-07-29T06:38:41;99757.50;;;22.67;50.18
70133;BME280;57495;49.922;7.966;2022-07-29T06:40:45;99751.00;;;22.68;51.04
70133;BME280;57495;49.922;7.966;2022-07-29T06:43:02;99748.19;;;22.74;50.87
70133;BME280;57495;49.922;7.966;2022-07-29T06:45:04;99747.50;;;22.79;50.22
70133;BME280;57495;49.922;7.966;2022-07-29T06:47:05;99745.22;;;22.76;50.84
70133;BME280;57495;49.922;7.966;2022-07-29T06:49:07;99749.00;;;22.93;51.14
70133;BME280;57495;49.922;7.966;2022-07-29T06:51:09;99746.84;;;23.14;50.24
70133;BME280;57495;49.922;7.966;2022-07-29T06:53:11;99745.78;;;23.15;49.13
70133;BME280;57495;49.922;7.966;2022-07-29T06:55:12;99747.84;;;23.31;48.62
70133;BME280;57495;49.922;7.966;2022-07-29T06:57:15;99747.03;;;23.43;47.74
70133;BME280;57495;49.922;7.966;2022-07-29T06:59:17;99746.34;;;23.59;47.56
70133;BME280;57495;49.922;7.966;2022-07-29T07:01:18;99748.81;;;23.37;47.08
70133;BME280;57495;49.922;7.966;2022-07-29T07:03:19;99754.22;;;23.67;47.33
70133;BME280;57495;49.922;7.966;2022-07-29T07:05:21;99756.09;;;23.55;47.53
70133;BME280;57495;49.922;7.966;2022-07-29T07:07:22;99750.91;;;23.89;46.75
70133;BME280;57495;49.922;7.966;2022-07-29T07:09:24;99757.81;;;24.03;46.58
70133;BME280;57495;49.922;7.966;2022-07-29T07:11:25;99753.41;;;24.02;46.41
70133;BME280;57495;49.922;7.966;2022-07-29T07:13:28;99763.28;;;24.27;46.56
70133;BME280;57495;49.922;7.966;2022-07-29T07:15:35;99754.22;;;24.38;45.54
70133;BME280;57495;49.922;7.966;2022-07-29T07:17:37;99759.44;;;24.40;45.06
70133;BME280;57495;49.922;7.966;2022-07-29T07:19:38;99769.53;;;24.51;44.97
70133;BME280;57495;49.922;7.966;2022-07-29T07:21:39;99765.88;;;24.45;44.31
70133;BME280;57495;49.922;7.966;2022-07-29T07:23:41;99762.41;;;24.62;44.06
70133;BME280;57495;49.922;7.966;2022-07-29T07:25:42;99772.50;;;24.73;44.86
70133;BME280;57495;49.922;7.966;2022-07-29T07:27:44;99775.34;;;24.78;44.39
70133;BME280;57495;49.922;7.966;2022-07-29T07:29:47;99773.19;;;24.80;44.18
70133;BME280;57495;49.922;7.966;2022-07-29T07:31:48;99770.75;;;24.96;44.13
70133;BME280;57495;49.922;7.966;2022-07-29T07:33:50;99773.66;;;25.06;43.49
70133;BME280;57495;49.922;7.966;2022-07-29T07:35:52;99773.69;;;25.35;43.25
70133;BME280;57495;49.922;7.966;2022-07-29T07:37:54;99770.72;;;25.53;43.08
70133;BME280;57495;49.922;7.966;2022-07-29T07:39:55;99766.06;;;25.71;41.84
70133;BME280;57495;49.922;7.966;2022-07-29T07:41:58;99767.03;;;25.93;41.57
70133;BME280;57495;49.922;7.966;2022-07-29T07:44:00;99763.75;;;26.13;40.85
70133;BME280;57495;49.922;7.966;2022-07-29T07:46:02;99767.03;;;26.32;40.42
70133;BME280;57495;49.922;7.966;2022-07-29T07:48:04;99771.97;;;26.74;40.49
70133;BME280;57495;49.922;7.966;2022-07-29T07:50:07;99763.75;;;26.52;39.16
70133;BME280;57495;49.922;7.966;2022-07-29T07:52:09;99758.00;;;26.15;39.12
70133;BME280;57495;49.922;7.966;2022-07-29T07:54:10;99769.41;;;25.90;40.69
70133;BME280;57495;49.922;7.966;2022-07-29T07:56:11;99762.25;;;26.06;40.62
70133;BME280;57495;49.922;7.966;2022-07-29T07:58:13;99761.19;;;26.46;40.35
70133;BME280;57495;49.922;7.966;2022-07-29T08:00:15;99762.50;;;26.60;39.72
70133;BME280;57495;49.922;7.966;2022-07-29T08:02:19;99762.59;;;26.92;38.87
70133;BME280;57495;49.922;7.966;2022-07-29T08:04:20;99761.25;;;27.22;38.78
70133;BME280;57495;49.922;7.966;2022-07-29T08:06:21;99769.22;;;27.46;37.28
70133;BME280;57495;49.922;7.966;2022-07-29T08:08:24;99773.28;;;27.16;37.44
70133;BME280;57495;49.922;7.966;2022-07-29T08:10:25;99767.84;;;27.48;37.73
70133;BME280;57495;49.922;7.966;2022-07-29T08:12:44;99764.91;;;27.55;37.79
70133;BME280;57495;49.922;7.966;2022-07-29T08:14:46;99759.34;;;27.82;38.18
70133;BME280;57495;49.922;7.966;2022-07-29T08:16:47;99767.16;;;27.95;37.46
70133;BME280;57495;49.922;7.966;2022-07-29T08:18:50;99764.59;;;27.51;37.83
70133;BME280;57495;49.922;7.966;2022-07-29T08:20:57;99762.63;;;27.79;37.70
70133;BME280;57495;49.922;7.966;2022-07-29T08:22:59;99770.78;;;27.36;37.89
70133;BME280;57495;49.922;7.966;2022-07-29T08:25:00;99781.06;;;27.51;38.07
70133;BME280;57495;49.922;7.966;2022-07-29T08:27:02;99765.94;;;27.81;38.00
70133;BME280;57495;49.922;7.966;2022-07-29T08:29:03;99771.00;;;27.94;37.75
70133;BME280;57495;49.922;7.966;2022-07-29T08:31:05;99764.88;;;27.87;37.37
70133;BME280;57495;49.922;7.966;2022-07-29T08:33:06;99771.69;;;28.12;36.81
70133;BME280;57495;49.922;7.966;2022-07-29T08:35:09;99763.25;;;28.29;36.65
70133;BME280;57495;49.922;7.966;2022-07-29T08:37:10;99768.00;;;28.44;36.68
70133;BME280;57495;49.922;7.966;2022-07-29T08:39:12;99770.84;;;28.59;35.92
70133;BME280;57495;49.922;7.966;2022-07-29T08:41:14;99772.06;;;28.84;35.38
70133;BME280;57495;49.922;7.966;2022-07-29T08:43:16;99761.09;;;28.36;34.98
70133;BME280;57495;49.922;7.966;2022-07-29T08:45:18;99769.34;;;28.94;35.70
70133;BME280;57495;49.922;7.966;2022-07-29T08:47:19;99761.06;;;28.94;35.15
70133;BME280;57495;49.922;7.966;2022-07-29T08:49:21;99766.06;;;29.02;34.39
70133;BME280;57495;49.922;7.966;2022-07-29T08:51:25;99765.03;;;29.24;34.61
70133;BME280;57495;49.922;7.966;2022-07-29T08:53:28;99768.38;;;29.52;35.34
70133;BME280;57495;49.922;7.966;2022-07-29T08:55:30;99765.06;;;29.60;34.11
70133;BME280;57495;49.922;7.966;2022-07-29T08:57:33;99763.41;;;29.43;34.26
70133;BME280;57495;49.922;7.966;2022-07-29T08:59:35;99760.38;;;29.55;34.40
70133;BME280;57495;49.922;7.966;2022-07-29T09:01:38;99755.41;;;29.67;33.50
70133;BME280;57495;49.922;7.966;2022-07-29T09:03:43;99765.59;;;29.52;34.09
70133;BME280;57495;49.922;7.966;2022-07-29T09:05:46;99757.91;;;29.74;34.08
70133;BME280;57495;49.922;7.966;2022-07-29T09:07:49;99756.78;;;30.01;33.30
70133;BME280;57495;49.922;7.966;2022-07-29T09:09:51;99752.91;;;30.12;34.17
70133;BME280;57495;49.922;7.966;2022-07-29T09:11:53;99757.34;;;30.03;33.84
70133;BME280;57495;49.922;7.966;2022-07-29T09:13:54;99757.38;;;29.87;34.23
70133;BME280;57495;49.922;7.966;2022-07-29T09:15:56;99765.91;;;29.91;34.58
70133;BME280;57495;49.922;7.966;2022-07-29T09:17:57;99755.16;;;29.90;34.80
70133;BME280;57495;49.922;7.966;2022-07-29T09:20:08;99755.50;;;30.69;33.53
70133;BME280;57495;49.922;7.966;2022-07-29T09:22:10;99758.41;;;30.33;33.33
70133;BME280;57495;49.922;7.966;2022-07-29T09:24:13;99749.47;;;30.61;33.37
70133;BME280;57495;49.922;7.966;2022-07-29T09:26:14;99754.56;;;29.72;34.04
70133;BME280;57495;49.922;7.966;2022-07-29T09:28:17;99756.50;;;29.25;35.17
70133;BME280;57495;49.922;7.966;2022-07-29T09:30:18;99754.72;;;28.88;34.62
70133;BME280;57495;49.922;7.966;2022-07-29T09:32:22;99747.22;;;28.68;35.23
70133;BME280;57495;49.922;7.966;2022-07-29T09:34:24;99749.31;;;28.46;35.59
70133;BME280;57495;49.922;7.966;2022-07-29T09:36:26;99750.69;;;28.48;36.50
70133;BME280;57495;49.922;7.966;2022-07-29T09:38:28;99756.69;;;28.93;35.88
70133;BME280;57495;49.922;7.966;2022-07-29T09:40:30;99751.56;;;29.53;35.72
70133;BME280;57495;49.922;7.966;2022-07-29T09:42:32;99751.81;;;30.08;34.45
70133;BME280;57495;49.922;7.966;2022-07-29T09:44:41;99746.56;;;30.12;34.75
70133;BME280;57495;49.922;7.966;2022-07-29T09:47:07;99747.44;;;30.77;33.80
70133;BME280;57495;49.922;7.966;2022-07-29T09:49:10;99751.19;;;30.32;33.49
70133;BME280;57495;49.922;7.966;2022-07-29T09:51:18;99752.78;;;30.63;34.49
70133;BME280;57495;49.922;7.966;2022-07-29T09:53:31;99744.19;;;31.20;32.82
70133;BME280;57495;49.922;7.966;2022-07-29T09:55:46;99748.03;;;30.74;33.51
70133;BME280;57495;49.922;7.966;2022-07-29T09:57:47;99747.91;;;30.35;33.75
70133;BME280;57495;49.922;7.966;2022-07-29T09:59:56;99741.88;;;30.12;33.46
70133;BME280;57495;49.922;7.966;2022-07-29T10:01:58;99746.25;;;30.18;34.00
70133;BME280;57495;49.922;7.966;2022-07-29T10:03:59;99743.72;;;30.42;33.24
70133;BME280;57495;49.922;7.966;2022-07-29T10:06:06;99744.09;;;30.91;33.39
70133;BME280;57495;49.922;7.966;2022-07-29T10:08:09;99739.56;;;31.10;33.39
70133;BME280;57495;49.922;7.966;2022-07-29T10:10:10;99734.72;;;30.92;32.80
70133;BME280;57495;49.922;7.966;2022-07-29T10:12:13;99732.19;;;30.95;33.21
70133;BME280;57495;49.922;7.966;2022-07-29T10:14:15;99740.06;;;30.68;33.17
70133;BME280;57495;49.922;7.966;2022-07-29T10:16:16;99734.56;;;30.62;32.60
70133;BME280;57495;49.922;7.966;2022-07-29T10:18:18;99739.88;;;31.03;32.94
70133;BME280;57495;49.922;7.966;2022-07-29T10:20:20;99733.28;;;30.99;33.25
70133;BME280;57495;49.922;7.966;2022-07-29T10:22:22;99722.06;;;31.89;31.98
70133;BME280;57495;49.922;7.966;2022-07-29T10:24:25;99738.38;;;31.61;31.16
70133;BME280;57495;49.922;7.966;2022-07-29T10:26:28;99731.06;;;31.01;33.16
70133;BME280;57495;49.922;7.966;2022-07-29T10:28:31;99734.03;;;32.13;31.08
70133;BME280;57495;49.922;7.966;2022-07-29T10:30:33;99735.34;;;30.73;32.65
70133;BME280;57495;49.922;7.966;2022-07-29T10:32:43;99742.44;;;29.63;35.03
70133;BME280;57495;49.922;7.966;2022-07-29T10:35:01;99725.91;;;29.99;34.59
70133;BME280;57495;49.922;7.966;2022-07-29T10:37:16;99728.84;;;30.38;34.64
70133;BME280;57495;49.922;7.966;2022-07-29T10:39:31;99726.19;;;30.78;33.69
70133;BME280;57495;49.922;7.966;2022-07-29T10:42:06;99720.53;;;31.43;33.00
70133;BME280;57495;49.922;7.966;2022-07-29T10:44:16;99716.06;;;31.13;32.02
70133;BME280;57495;49.922;7.966;2022-07-29T10:46:18;99710.09;;;30.95;32.01
70133;BME280;57495;49.922;7.966;2022-07-29T10:48:20;99712.97;;;30.70;32.32
70133;BME280;57495;49.922;7.966;2022-07-29T10:50:22;99706.56;;;30.79;32.17
70133;BME280;57495;49.922;7.966;2022-07-29T10:52:24;99706.31;;;30.76;32.63
70133;BME280;57495;49.922;7.966;2022-07-29T10:54:48;99701.69;;;31.11;31.40